sensor_id;sensor_type;location;lat;lon;timestamp;pressure;altitude;pressure_sealevel;temperature;humidity
78845;BME280;68195;50.854;2.860;2023-04-03T00:00:05;102831.59;;;1.93;82.03
78845;BME280;68195;50.854;2.860;2023-04-03T00:02:32;102810.59;;;1.75;81.88
78845;BME280;68195;50.854;2.860;2023-04-03T00:04:57;102859.97;;;1.95;81.83
78845;BME280;68195;50.854;2.860;2023-04-03T00:07:25;102837.22;;;1.74;82.05
78845;BME280;68195;50.854;2.860;2023-04-03T00:09:53;102856.28;;;1.82;82.63
78845;BME280;68195;50.854;2.860;2023-04-03T00:12:19;102843.31;;;1.77;82.84
78845;BME280;68195;50.854;2.860;2023-04-03T00:14:44;102844.88;;;1.72;82.28
78845;BME280;68195;50.854;2.860;2023-04-03T00:17:09;102827.53;;;1.63;82.15
78845;BME280;68195;50.854;2.860;2023-04-03T00:19:35;102846.66;;;1.75;82.45
78845;BME280;68195;50.854;2.860;2023-04-03T00:22:00;102838.03;;;1.73;82.48
78845;BME280;68195;50.854;2.860;2023-04-03T00:24:26;102832.88;;;1.73;82.66
78845;BME280;68195;50.854;2.860;2023-04-03T00:26:51;102859.72;;;1.82;82.75
78845;BME280;68195;50.854;2.860;2023-04-03T00:29:17;102850.22;;;1.80;82.98
78845;BME280;68195;50.854;2.860;2023-04-03T00:31:42;102856.34;;;1.87;83.45
78845;BME280;68195;50.854;2.860;2023-04-03T00:34:07;102851.03;;;1.79;83.34
78845;BME280;68195;50.854;2.860;2023-04-03T00:36:33;102871.84;;;1.88;82.88
78845;BME280;68195;50.854;2.860;2023-04-03T00:38:58;102838.69;;;1.64;82.74
78845;BME280;68195;50.854;2.860;2023-04-03T00:41:24;102853.44;;;1.70;83.13
78845;BME280;68195;50.854;2.860;2023-04-03T00:43:51;102858.63;;;1.73;82.89
78845;BME280;68195;50.854;2.860;2023-04-03T00:46:17;102859.47;;;1.72;82.52
78845;BME280;68195;50.854;2.860;2023-04-03T00:48:47;102869.88;;;1.76;82.14
78845;BME280;68195;50.854;2.860;2023-04-03T00:51:26;102856.19;;;1.77;82.06
78845;BME280;68195;50.854;2.860;2023-04-03T00:54:01;102869.03;;;1.76;82.34
78845;BME280;68195;50.854;2.860;2023-04-03T00:56:33;102872.41;;;1.73;82.47
78845;BME280;68195;50.854;2.860;2023-04-03T00:59:02;102873.22;;;1.71;82.02
78845;BME280;68195;50.854;2.860;2023-04-03T01:01:29;102861.75;;;1.56;82.59
78845;BME280;68195;50.854;2.860;2023-04-03T01:03:55;102872.03;;;1.56;81.99
78845;BME280;68195;50.854;2.860;2023-04-03T01:06:24;102872.81;;;1.52;82.30
78845;BME280;68195;50.854;2.860;2023-04-03T01:08:51;102857.97;;;1.42;82.13
78845;BME280;68195;50.854;2.860;2023-04-03T01:11:17;102816.31;;;1.20;82.33
78845;BME280;68195;50.854;2.860;2023-04-03T01:13:42;102864.94;;;1.46;82.59
78845;BME280;68195;50.854;2.860;2023-04-03T01:16:10;102873.53;;;1.47;82.23
78845;BME280;68195;50.854;2.860;2023-04-03T01:18:41;102862.09;;;1.34;82.33
78845;BME280;68195;50.854;2.860;2023-04-03T01:24:21;102885.19;;;1.31;82.24
78845;BME280;68195;50.854;2.860;2023-04-03T01:26:50;102842.75;;;1.13;82.12
78845;BME280;68195;50.854;2.860;2023-04-03T01:29:16;102878.38;;;1.33;82.52
78845;BME280;68195;50.854;2.860;2023-04-03T01:31:56;102860.97;;;1.22;82.53
78845;BME280;68195;50.854;2.860;2023-04-03T01:34:23;102857.50;;;1.20;82.74
78845;BME280;68195;50.854;2.860;2023-04-03T01:36:51;102865.06;;;1.13;82.41
78845;BME280;68195;50.854;2.860;2023-04-03T01:39:18;102856.34;;;1.06;82.51
78845;BME280;68195;50.854;2.860;2023-04-03T01:41:43;102867.53;;;1.10;82.38
78845;BME280;68195;50.854;2.860;2023-04-03T01:44:12;102824.09;;;0.86;82.28
78845;BME280;68195;50.854;2.860;2023-04-03T01:46:37;102847.41;;;0.92;82.98
78845;BME280;68195;50.854;2.860;2023-04-03T01:49:03;102887.25;;;1.09;82.62
78845;BME280;68195;50.854;2.860;2023-04-03T01:51:29;102882.97;;;1.08;82.82
78845;BME280;68195;50.854;2.860;2023-04-03T01:53:55;102877.72;;;1.05;82.48
78845;BME280;68195;50.854;2.860;2023-04-03T01:56:20;102843.78;;;0.84;82.48
78845;BME280;68195;50.854;2.860;2023-04-03T01:58:48;102877.66;;;1.02;82.47
78845;BME280;68195;50.854;2.860;2023-04-03T02:01:13;102862.03;;;0.94;82.68
78845;BME280;68195;50.854;2.860;2023-04-03T02:03:40;102842.03;;;0.82;82.10
78845;BME280;68195;50.854;2.860;2023-04-03T02:06:05;102869.84;;;0.97;82.20
78845;BME280;68195;50.854;2.860;2023-04-03T02:08:33;102876.72;;;0.98;82.61
78845;BME280;68195;50.854;2.860;2023-04-03T02:11:01;102887.88;;;0.99;82.49
78845;BME280;68195;50.854;2.860;2023-04-03T02:13:29;102875.59;;;0.87;82.07
78845;BME280;68195;50.854;2.860;2023-04-03T02:15:57;102860.75;;;0.77;81.87
78845;BME280;68195;50.854;2.860;2023-04-03T02:18:22;102874.53;;;0.79;82.32
78845;BME280;68195;50.854;2.860;2023-04-03T02:20:47;102876.38;;;0.85;82.44
78845;BME280;68195;50.854;2.860;2023-04-03T02:23:13;102884.16;;;0.88;82.46
78845;BME280;68195;50.854;2.860;2023-04-03T02:25:38;102885.94;;;0.89;82.58
78845;BME280;68195;50.854;2.860;2023-04-03T02:28:06;102852.94;;;0.72;82.91
78845;BME280;68195;50.854;2.860;2023-04-03T02:30:31;102869.38;;;0.79;82.41
78845;BME280;68195;50.854;2.860;2023-04-03T02:32:59;102888.34;;;0.84;82.58
78845;BME280;68195;50.854;2.860;2023-04-03T02:35:25;102885.78;;;0.84;82.50
78845;BME280;68195;50.854;2.860;2023-04-03T02:37:50;102900.28;;;0.80;82.22
78845;BME280;68195;50.854;2.860;2023-04-03T02:40:16;102899.44;;;0.81;82.74
78845;BME280;68195;50.854;2.860;2023-04-03T02:42:41;102895.84;;;0.75;82.41
78845;BME280;68195;50.854;2.860;2023-04-03T02:45:07;102888.03;;;0.70;81.93
78845;BME280;68195;50.854;2.860;2023-04-03T02:47:37;102862.03;;;0.59;82.79
78845;BME280;68195;50.854;2.860;2023-04-03T02:50:03;102900.03;;;0.71;82.01
78845;BME280;68195;50.854;2.860;2023-04-03T02:52:30;102904.28;;;0.69;83.81
78845;BME280;68195;50.854;2.860;2023-04-03T02:54:58;102885.81;;;0.51;84.29
78845;BME280;68195;50.854;2.860;2023-04-03T02:57:24;102898.91;;;0.60;83.94
78845;BME280;68195;50.854;2.860;2023-04-03T02:59:53;102898.91;;;0.60;83.64
78845;BME280;68195;50.854;2.860;2023-04-03T03:02:19;102896.53;;;0.68;82.94
78845;BME280;68195;50.854;2.860;2023-04-03T03:04:44;102885.50;;;0.73;82.62
78845;BME280;68195;50.854;2.860;2023-04-03T03:07:10;102901.25;;;0.86;83.20
78845;BME280;68195;50.854;2.860;2023-04-03T03:09:37;102863.22;;;0.72;83.90
78845;BME280;68195;50.854;2.860;2023-04-03T03:12:03;102905.28;;;1.09;84.30
78845;BME280;68195;50.854;2.860;2023-04-03T03:14:29;102885.38;;;1.02;84.85
78845;BME280;68195;50.854;2.860;2023-04-03T03:16:54;102902.00;;;1.15;85.33
78845;BME280;68195;50.854;2.860;2023-04-03T03:19:19;102876.91;;;1.06;85.44
78845;BME280;68195;50.854;2.860;2023-04-03T03:21:47;102891.72;;;1.16;85.15
78845;BME280;68195;50.854;2.860;2023-04-03T03:24:13;102889.19;;;1.18;84.73
78845;BME280;68195;50.854;2.860;2023-04-03T03:26:38;102908.41;;;1.32;85.42
78845;BME280;68195;50.854;2.860;2023-04-03T03:29:06;102904.94;;;1.32;84.76
78845;BME280;68195;50.854;2.860;2023-04-03T03:31:31;102871.22;;;1.19;85.14
78845;BME280;68195;50.854;2.860;2023-04-03T03:33:59;102897.25;;;1.33;85.24
78845;BME280;68195;50.854;2.860;2023-04-03T03:36:25;102890.41;;;1.34;84.48
78845;BME280;68195;50.854;2.860;2023-04-03T03:38:50;102892.19;;;1.36;85.38
78845;BME280;68195;50.854;2.860;2023-04-03T03:41:15;102893.97;;;1.39;85.38
78845;BME280;68195;50.854;2.860;2023-04-03T03:43:41;102897.38;;;1.38;85.29
78845;BME280;68195;50.854;2.860;2023-04-03T03:46:11;102902.59;;;1.41;85.34
78845;BME280;68195;50.854;2.860;2023-04-03T03:48:37;102891.25;;;1.33;85.98
78845;BME280;68195;50.854;2.860;2023-04-03T03:51:02;102878.31;;;1.30;85.22
78845;BME280;68195;50.854;2.860;2023-04-03T03:53:30;102907.09;;;1.50;85.40
78845;BME280;68195;50.854;2.860;2023-04-03T03:55:55;102879.34;;;1.38;85.38
78845;BME280;68195;50.854;2.860;2023-04-03T03:58:21;102886.44;;;1.48;84.74
78845;BME280;68195;50.854;2.860;2023-04-03T04:00:46;102894.31;;;1.54;85.22
78845;BME280;68195;50.854;2.860;2023-04-03T04:03:12;102881.28;;;1.48;84.47
78845;BME280;68195;50.854;2.860;2023-04-03T04:05:37;102890.88;;;1.54;85.31
78845;BME280;68195;50.854;2.860;2023-04-03T04:08:05;102877.78;;;1.44;84.50
78845;BME280;68195;50.854;2.860;2023-04-03T04:10:30;102902.94;;;1.56;84.81
78845;BME280;68195;50.854;2.860;2023-04-03T04:12:58;102858.69;;;1.35;84.77
78845;BME280;68195;50.854;2.860;2023-04-03T04:15:23;102876.88;;;1.42;84.97
78845;BME280;68195;50.854;2.860;2023-04-03T04:17:50;102906.47;;;1.61;84.64
78845;BME280;68195;50.854;2.860;2023-04-03T04:20:16;102900.28;;;1.53;85.19
78845;BME280;68195;50.854;2.860;2023-04-03T04:22:41;102851.53;;;1.21;85.17
78845;BME280;68195;50.854;2.860;2023-04-03T04:25:07;102909.72;;;1.53;84.67
78845;BME280;68195;50.854;2.860;2023-04-03T04:27:33;102904.66;;;1.57;84.98
78845;BME280;68195;50.854;2.860;2023-04-03T04:29:58;102872.44;;;1.35;84.88
78845;BME280;68195;50.854;2.860;2023-04-03T04:32:24;102880.38;;;1.46;84.21
78845;BME280;68195;50.854;2.860;2023-04-03T04:34:52;102894.16;;;1.48;84.16
78845;BME280;68195;50.854;2.860;2023-04-03T04:37:22;102900.28;;;1.53;84.08
78845;BME280;68195;50.854;2.860;2023-04-03T04:39:47;102898.69;;;1.58;83.78
78845;BME280;68195;50.854;2.860;2023-04-03T04:42:15;102870.84;;;1.40;84.10
78845;BME280;68195;50.854;2.860;2023-04-03T04:44:40;102900.31;;;1.55;84.00
78845;BME280;68195;50.854;2.860;2023-04-03T04:47:06;102881.13;;;1.40;83.94
78845;BME280;68195;50.854;2.860;2023-04-03T04:49:31;102883.81;;;1.45;84.25
78845;BME280;68195;50.854;2.860;2023-04-03T04:51:57;102890.63;;;1.43;84.38
78845;BME280;68195;50.854;2.860;2023-04-03T04:54:22;102892.44;;;1.47;84.26
78845;BME280;68195;50.854;2.860;2023-04-03T04:56:48;102886.25;;;1.39;84.01
78845;BME280;68195;50.854;2.860;2023-04-03T04:59:15;102905.38;;;1.50;83.54
78845;BME280;68195;50.854;2.860;2023-04-03T05:01:41;102898.41;;;1.46;84.36
78845;BME280;68195;50.854;2.860;2023-04-03T05:04:06;102905.38;;;1.50;83.84
78845;BME280;68195;50.854;2.860;2023-04-03T05:06:36;102901.94;;;1.50;83.67
78845;BME280;68195;50.854;2.860;2023-04-03T05:09:05;102886.31;;;1.42;83.90
78845;BME280;68195;50.854;2.860;2023-04-03T05:11:31;102907.00;;;1.47;83.53
78845;BME280;68195;50.854;2.860;2023-04-03T05:13:56;102899.13;;;1.39;83.44
78845;BME280;68195;50.854;2.860;2023-04-03T05:16:22;102913.81;;;1.44;83.68
78845;BME280;68195;50.854;2.860;2023-04-03T05:18:49;102886.91;;;1.30;83.80
78845;BME280;68195;50.854;2.860;2023-04-03T05:21:17;102925.81;;;1.44;83.28
78845;BME280;68195;50.854;2.860;2023-04-03T05:23:45;102922.44;;;1.45;83.41
78845;BME280;68195;50.854;2.860;2023-04-03T05:26:11;102931.97;;;1.49;83.61
78845;BME280;68195;50.854;2.860;2023-04-03T05:28:36;102877.13;;;1.15;83.22
78845;BME280;68195;50.854;2.860;2023-04-03T05:31:02;102898.78;;;1.23;83.08
78845;BME280;68195;50.854;2.860;2023-04-03T05:33:27;102920.47;;;1.35;83.72
78845;BME280;68195;50.854;2.860;2023-04-03T05:35:54;102931.69;;;1.37;83.49
78845;BME280;68195;50.854;2.860;2023-04-03T05:38:19;102939.56;;;1.43;83.49
78845;BME280;68195;50.854;2.860;2023-04-03T05:40:45;102903.03;;;1.23;83.15
78845;BME280;68195;50.854;2.860;2023-04-03T05:43:12;102904.72;;;1.22;83.06
78845;BME280;68195;50.854;2.860;2023-04-03T05:45:40;102917.84;;;1.33;83.37
78845;BME280;68195;50.854;2.860;2023-04-03T05:48:08;102904.81;;;1.26;82.97
78845;BME280;68195;50.854;2.860;2023-04-03T05:50:38;102939.59;;;1.46;83.03
78845;BME280;68195;50.854;2.860;2023-04-03T05:53:15;102933.50;;;1.41;82.39
78845;BME280;68195;50.854;2.860;2023-04-03T05:55:42;102927.47;;;1.40;82.42
78845;BME280;68195;50.854;2.860;2023-04-03T05:58:10;102934.31;;;1.40;82.69
78845;BME280;68195;50.854;2.860;2023-04-03T06:00:38;102950.81;;;1.48;83.13
78845;BME280;68195;50.854;2.860;2023-04-03T06:03:04;102917.84;;;1.33;82.66
78845;BME280;68195;50.854;2.860;2023-04-03T06:05:30;102938.03;;;1.51;81.99
78845;BME280;68195;50.854;2.860;2023-04-03T06:07:55;102928.34;;;1.41;82.48
78845;BME280;68195;50.854;2.860;2023-04-03T06:10:22;102917.25;;;1.43;81.97
78845;BME280;68195;50.854;2.860;2023-04-03T06:12:47;102953.75;;;1.63;81.89
78845;BME280;68195;50.854;2.860;2023-04-03T06:15:13;102938.19;;;1.59;82.03
78845;BME280;68195;50.854;2.860;2023-04-03T06:17:41;102922.53;;;1.50;81.83
78845;BME280;68195;50.854;2.860;2023-04-03T06:20:06;102946.16;;;1.70;81.52
78845;BME280;68195;50.854;2.860;2023-04-03T06:22:32;102948.88;;;1.76;81.43
78845;BME280;68195;50.854;2.860;2023-04-03T06:25:01;102953.34;;;1.84;81.44
78845;BME280;68195;50.854;2.860;2023-04-03T06:27:26;102904.75;;;1.60;80.81
78845;BME280;68195;50.854;2.860;2023-04-03T06:29:52;102953.50;;;1.92;81.04
78845;BME280;68195;50.854;2.860;2023-04-03T06:32:19;102957.06;;;1.97;80.59
78845;BME280;68195;50.854;2.860;2023-04-03T06:34:45;102937.03;;;1.85;80.65
78845;BME280;68195;50.854;2.860;2023-04-03T06:37:19;102956.50;;;2.11;80.61
78845;BME280;68195;50.854;2.860;2023-04-03T06:39:45;102930.41;;;1.95;80.48
78845;BME280;68195;50.854;2.860;2023-04-03T06:42:10;102959.25;;;2.20;80.00
78845;BME280;68195;50.854;2.860;2023-04-03T06:44:36;102966.97;;;2.20;79.78
78845;BME280;68195;50.854;2.860;2023-04-03T06:47:02;102955.81;;;2.19;79.77
78845;BME280;68195;50.854;2.860;2023-04-03T06:49:30;102961.31;;;2.36;79.05
78845;BME280;68195;50.854;2.860;2023-04-03T06:51:57;102934.38;;;2.22;78.85
78845;BME280;68195;50.854;2.860;2023-04-03T06:54:24;102958.78;;;2.38;79.07
78845;BME280;68195;50.854;2.860;2023-04-03T06:56:50;102959.88;;;2.51;79.02
78845;BME280;68195;50.854;2.860;2023-04-03T06:59:16;102937.38;;;2.42;78.48
78845;BME280;68195;50.854;2.860;2023-04-03T07:01:42;102968.91;;;2.74;78.33
78845;BME280;68195;50.854;2.860;2023-04-03T07:04:10;102957.63;;;2.69;78.19
78845;BME280;68195;50.854;2.860;2023-04-03T07:06:40;102966.50;;;2.83;77.36
78845;BME280;68195;50.854;2.860;2023-04-03T07:09:07;102958.91;;;2.93;76.97
78845;BME280;68195;50.854;2.860;2023-04-03T07:11:32;102969.34;;;2.99;77.42
78845;BME280;68195;50.854;2.860;2023-04-03T07:13:58;102962.53;;;3.04;76.97
78845;BME280;68195;50.854;2.860;2023-04-03T07:16:23;102968.72;;;3.12;76.33
78845;BME280;68195;50.854;2.860;2023-04-03T07:18:49;102965.38;;;3.19;76.86
78845;BME280;68195;50.854;2.860;2023-04-03T07:21:14;102960.34;;;3.27;76.66
78845;BME280;68195;50.854;2.860;2023-04-03T07:23:40;102975.22;;;3.42;75.53
78845;BME280;68195;50.854;2.860;2023-04-03T07:26:07;102984.00;;;3.53;76.02
78845;BME280;68195;50.854;2.860;2023-04-03T07:28:33;102976.31;;;3.58;75.67
78845;BME280;68195;50.854;2.860;2023-04-03T07:31:04;102979.88;;;3.64;75.63
78845;BME280;68195;50.854;2.860;2023-04-03T07:33:31;102964.50;;;3.74;74.54
78845;BME280;68195;50.854;2.860;2023-04-03T07:35:57;102958.59;;;3.84;74.36
78845;BME280;68195;50.854;2.860;2023-04-03T07:38:26;102950.81;;;3.81;74.30
78845;BME280;68195;50.854;2.860;2023-04-03T07:40:51;102972.66;;;4.03;74.57
78845;BME280;68195;50.854;2.860;2023-04-03T07:43:19;102978.88;;;4.19;73.50
78845;BME280;68195;50.854;2.860;2023-04-03T07:45:46;102966.94;;;4.27;72.58
78845;BME280;68195;50.854;2.860;2023-04-03T07:48:14;102978.31;;;4.41;72.35
78845;BME280;68195;50.854;2.860;2023-04-03T07:50:41;102948.13;;;4.42;71.27
78845;BME280;68195;50.854;2.860;2023-04-03T07:53:07;102955.09;;;4.49;72.06
78845;BME280;68195;50.854;2.860;2023-04-03T07:55:35;102980.50;;;4.82;70.39
78845;BME280;68195;50.854;2.860;2023-04-03T07:58:09;102965.81;;;4.86;71.70
78845;BME280;68195;50.854;2.860;2023-04-03T08:00:34;102947.72;;;4.87;70.81
78845;BME280;68195;50.854;2.860;2023-04-03T08:03:00;102968.63;;;5.06;70.90
78845;BME280;68195;50.854;2.860;2023-04-03T08:05:28;102951.44;;;5.16;69.63
78845;BME280;68195;50.854;2.860;2023-04-03T08:07:54;102971.47;;;5.33;69.91
78845;BME280;68195;50.854;2.860;2023-04-03T08:10:20;102958.50;;;5.35;69.75
78845;BME280;68195;50.854;2.860;2023-04-03T08:12:46;102974.22;;;5.58;69.18
78845;BME280;68195;50.854;2.860;2023-04-03T08:15:12;102971.69;;;5.69;67.38
78845;BME280;68195;50.854;2.860;2023-04-03T08:17:40;102977.88;;;5.88;67.33
78845;BME280;68195;50.854;2.860;2023-04-03T08:20:09;102945.84;;;5.81;66.02
78845;BME280;68195;50.854;2.860;2023-04-03T08:22:35;102964.09;;;5.95;65.00
78845;BME280;68195;50.854;2.860;2023-04-03T08:25:00;102979.75;;;6.16;65.34
78845;BME280;68195;50.854;2.860;2023-04-03T08:27:27;102933.88;;;6.06;64.95
78845;BME280;68195;50.854;2.860;2023-04-03T08:29:54;102987.69;;;6.46;64.19
78845;BME280;68195;50.854;2.860;2023-04-03T08:32:19;102980.75;;;6.49;64.39
78845;BME280;68195;50.854;2.860;2023-04-03T08:34:45;102948.69;;;6.32;63.06
78845;BME280;68195;50.854;2.860;2023-04-03T08:37:13;102947.81;;;6.39;61.54
78845;BME280;68195;50.854;2.860;2023-04-03T08:39:41;102928.81;;;6.39;62.07
78845;BME280;68195;50.854;2.860;2023-04-03T08:42:38;102944.41;;;6.58;61.42
78845;BME280;68195;50.854;2.860;2023-04-03T08:48:08;102979.13;;;7.07;62.77
78845;BME280;68195;50.854;2.860;2023-04-03T08:50:43;102972.22;;;7.15;59.90
78845;BME280;68195;50.854;2.860;2023-04-03T08:53:21;102959.19;;;7.21;59.75
78845;BME280;68195;50.854;2.860;2023-04-03T08:55:50;102988.66;;;7.48;59.22
78845;BME280;68195;50.854;2.860;2023-04-03T08:58:20;102984.28;;;7.62;58.83
78845;BME280;68195;50.854;2.860;2023-04-03T09:01:06;102986.88;;;7.74;59.49
78845;BME280;68195;50.854;2.860;2023-04-03T09:03:43;102988.63;;;7.72;59.92
78845;BME280;68195;50.854;2.860;2023-04-03T09:13:56;102981.63;;;8.02;58.69
78845;BME280;68195;50.854;2.860;2023-04-03T09:22:46;102972.03;;;8.07;56.63
78845;BME280;68195;50.854;2.860;2023-04-03T09:25:18;102970.31;;;8.03;56.74
78845;BME280;68195;50.854;2.860;2023-04-03T09:27:45;102966.81;;;8.13;57.46
78845;BME280;68195;50.854;2.860;2023-04-03T09:30:16;102974.59;;;8.27;57.05
78845;BME280;68195;50.854;2.860;2023-04-03T09:32:46;102967.53;;;8.52;56.62
78845;BME280;68195;50.854;2.860;2023-04-03T09:37:58;102976.22;;;8.51;54.90
78845;BME280;68195;50.854;2.860;2023-04-03T09:42:50;102958.84;;;8.49;54.39
78845;BME280;68195;50.854;2.860;2023-04-03T09:45:26;102957.97;;;8.54;54.51
78845;BME280;68195;50.854;2.860;2023-04-03T09:48:07;102913.81;;;8.30;54.26
78845;BME280;68195;50.854;2.860;2023-04-03T09:50:36;102942.47;;;8.28;54.60
78845;BME280;68195;50.854;2.860;2023-04-03T09:53:07;102943.31;;;8.29;55.91
78845;BME280;68195;50.854;2.860;2023-04-03T09:55:33;102938.13;;;8.29;56.57
78845;BME280;68195;50.854;2.860;2023-04-03T09:58:32;102934.59;;;8.45;54.82
78845;BME280;68195;50.854;2.860;2023-04-03T10:01:02;102949.38;;;8.45;54.63
78845;BME280;68195;50.854;2.860;2023-04-03T10:03:34;102953.63;;;8.55;55.53
78845;BME280;68195;50.854;2.860;2023-04-03T10:06:01;102932.88;;;8.35;54.02
78845;BME280;68195;50.854;2.860;2023-04-03T10:08:35;102939.78;;;8.51;55.75
78845;BME280;68195;50.854;2.860;2023-04-03T10:13:33;102941.47;;;8.57;54.73
78845;BME280;68195;50.854;2.860;2023-04-03T10:16:07;102925.94;;;8.43;54.10
78845;BME280;68195;50.854;2.860;2023-04-03T10:18:46;102933.75;;;8.38;55.46
78845;BME280;68195;50.854;2.860;2023-04-03T10:24:02;102940.56;;;8.61;56.81
78845;BME280;68195;50.854;2.860;2023-04-03T10:27:02;102910.19;;;8.58;55.60
78845;BME280;68195;50.854;2.860;2023-04-03T10:41:04;102923.28;;;8.48;56.43
78845;BME280;68195;50.854;2.860;2023-04-03T10:46:13;102902.47;;;8.46;57.61
78845;BME280;68195;50.854;2.860;2023-04-03T10:52:02;102911.88;;;8.69;57.52
78845;BME280;68195;50.854;2.860;2023-04-03T10:54:38;102900.53;;;8.77;55.64
78845;BME280;68195;50.854;2.860;2023-04-03T10:57:07;102906.50;;;8.89;55.79
78845;BME280;68195;50.854;2.860;2023-04-03T11:02:27;102894.31;;;8.92;52.40
78845;BME280;68195;50.854;2.860;2023-04-03T11:05:04;102883.09;;;8.86;53.74
78845;BME280;68195;50.854;2.860;2023-04-03T11:07:38;102895.13;;;8.97;54.86
78845;BME280;68195;50.854;2.860;2023-04-03T11:13:19;102889.94;;;8.99;53.36
78845;BME280;68195;50.854;2.860;2023-04-03T11:15:49;102879.41;;;9.07;53.57
78845;BME280;68195;50.854;2.860;2023-04-03T11:18:28;102868.97;;;9.10;51.33
78845;BME280;68195;50.854;2.860;2023-04-03T11:21:12;102866.44;;;9.00;52.72
78845;BME280;68195;50.854;2.860;2023-04-03T11:23:43;102861.22;;;9.03;51.99
78845;BME280;68195;50.854;2.860;2023-04-03T11:26:21;102872.38;;;9.18;50.82
78845;BME280;68195;50.854;2.860;2023-04-03T11:28:53;102866.38;;;9.07;49.03
78845;BME280;68195;50.854;2.860;2023-04-03T11:31:34;102865.56;;;9.00;51.88
78845;BME280;68195;50.854;2.860;2023-04-03T11:36:58;102856.03;;;8.97;51.76
78845;BME280;68195;50.854;2.860;2023-04-03T11:39:33;102854.34;;;8.96;49.47
78845;BME280;68195;50.854;2.860;2023-04-03T11:42:24;102841.41;;;8.84;49.45
78845;BME280;68195;50.854;2.860;2023-04-03T11:48:02;102838.66;;;8.99;49.93
78845;BME280;68195;50.854;2.860;2023-04-03T11:58:17;102847.13;;;9.23;49.61
78845;BME280;68195;50.854;2.860;2023-04-03T12:32:32;102822.50;;;9.49;46.44
78845;BME280;68195;50.854;2.860;2023-04-03T12:41:32;102811.94;;;9.58;45.53
78845;BME280;68195;50.854;2.860;2023-04-03T12:46:44;102801.66;;;9.45;48.95
78845;BME280;68195;50.854;2.860;2023-04-03T12:51:46;102798.88;;;9.59;45.71
78845;BME280;68195;50.854;2.860;2023-04-03T12:56:43;102784.22;;;9.51;44.51
78845;BME280;68195;50.854;2.860;2023-04-03T12:59:25;102792.91;;;9.51;45.32
78845;BME280;68195;50.854;2.860;2023-04-03T13:01:57;102804.91;;;9.64;44.96
78845;BME280;68195;50.854;2.860;2023-04-03T13:04:27;102801.50;;;9.59;45.49
78845;BME280;68195;50.854;2.860;2023-04-03T13:06:55;102802.41;;;9.55;46.76
78845;BME280;68195;50.854;2.860;2023-04-03T13:09:31;102794.44;;;9.66;46.75
78845;BME280;68195;50.854;2.860;2023-04-03T13:12:09;102788.25;;;9.72;45.31
78845;BME280;68195;50.854;2.860;2023-04-03T13:14:40;102780.56;;;9.62;44.74
78845;BME280;68195;50.854;2.860;2023-04-03T13:17:15;102781.28;;;9.74;44.08
78845;BME280;68195;50.854;2.860;2023-04-03T13:19:42;102787.34;;;9.77;42.56
78845;BME280;68195;50.854;2.860;2023-04-03T13:24:46;102762.09;;;9.79;43.98
78845;BME280;68195;50.854;2.860;2023-04-03T13:27:12;102753.47;;;9.74;44.75
78845;BME280;68195;50.854;2.860;2023-04-03T13:29:38;102759.50;;;9.78;44.39
78845;BME280;68195;50.854;2.860;2023-04-03T13:32:06;102781.06;;;9.91;44.48
78845;BME280;68195;50.854;2.860;2023-04-03T13:34:42;102766.22;;;9.93;41.63
78845;BME280;68195;50.854;2.860;2023-04-03T13:37:22;102762.84;;;9.88;42.47
78845;BME280;68195;50.854;2.860;2023-04-03T13:42:28;102767.16;;;9.90;44.40
78845;BME280;68195;50.854;2.860;2023-04-03T13:45:20;102766.22;;;9.96;45.21
78845;BME280;68195;50.854;2.860;2023-04-03T13:47:50;102765.22;;;10.01;44.70
78845;BME280;68195;50.854;2.860;2023-04-03T13:50:25;102747.88;;;9.99;45.17
78845;BME280;68195;50.854;2.860;2023-04-03T13:53:00;102753.00;;;10.06;43.99
78845;BME280;68195;50.854;2.860;2023-04-03T13:55:54;102769.53;;;10.04;42.17
78845;BME280;68195;50.854;2.860;2023-04-03T13:58:26;102754.88;;;9.97;42.55
78845;BME280;68195;50.854;2.860;2023-04-03T14:01:00;102754.16;;;9.85;43.56
78845;BME280;68195;50.854;2.860;2023-04-03T14:05:59;102748.34;;;9.68;42.96
78845;BME280;68195;50.854;2.860;2023-04-03T14:08:26;102732.44;;;9.83;43.50
78845;BME280;68195;50.854;2.860;2023-04-03T14:10:53;102737.59;;;9.90;40.56
78845;BME280;68195;50.854;2.860;2023-04-03T14:13:21;102749.66;;;9.97;40.18
78845;BME280;68195;50.854;2.860;2023-04-03T14:15:47;102744.41;;;9.98;40.77
78845;BME280;68195;50.854;2.860;2023-04-03T14:18:16;102727.09;;;9.91;42.09
78845;BME280;68195;50.854;2.860;2023-04-03T14:20:41;102728.69;;;10.03;42.36
78845;BME280;68195;50.854;2.860;2023-04-03T14:23:07;102721.78;;;9.99;39.68
78845;BME280;68195;50.854;2.860;2023-04-03T14:25:35;102709.66;;;9.95;41.53
78845;BME280;68195;50.854;2.860;2023-04-03T14:28:01;102719.09;;;10.02;41.80
78845;BME280;68195;50.854;2.860;2023-04-03T14:30:30;102716.44;;;10.06;41.28
78845;BME280;68195;50.854;2.860;2023-04-03T14:32:56;102727.75;;;10.07;42.80
78845;BME280;68195;50.854;2.860;2023-04-03T14:35:22;102721.50;;;10.16;43.00
78845;BME280;68195;50.854;2.860;2023-04-03T14:37:51;102719.00;;;10.10;43.82
78845;BME280;68195;50.854;2.860;2023-04-03T14:40:26;102720.03;;;9.99;45.80
78845;BME280;68195;50.854;2.860;2023-04-03T14:42:52;102731.38;;;9.97;45.12
78845;BME280;68195;50.854;2.860;2023-04-03T14:45:20;102715.03;;;9.85;44.36
78845;BME280;68195;50.854;2.860;2023-04-03T14:47:52;102713.13;;;9.95;45.82
78845;BME280;68195;50.854;2.860;2023-04-03T14:50:21;102682.13;;;9.74;43.88
78845;BME280;68195;50.854;2.860;2023-04-03T14:52:47;102717.50;;;9.95;44.47
78845;BME280;68195;50.854;2.860;2023-04-03T14:55:16;102721.19;;;9.80;43.81
78845;BME280;68195;50.854;2.860;2023-04-03T14:57:42;102698.63;;;9.77;43.01
78845;BME280;68195;50.854;2.860;2023-04-03T15:00:20;102709.56;;;9.99;44.46
78845;BME280;68195;50.854;2.860;2023-04-03T15:02:49;102710.38;;;10.04;45.23
78845;BME280;68195;50.854;2.860;2023-04-03T15:05:15;102706.19;;;9.96;42.21
78845;BME280;68195;50.854;2.860;2023-04-03T15:07:50;102658.81;;;9.64;44.22